sensor_id;sensor_type;location;lat;lon;timestamp;pressure;altitude;pressure_sealevel;temperature;humidity
8398;BME280;4236;54.504;9.588;2023-05-25T00:02:14;102426.28;;;10.28;100.00
8398;BME280;4236;54.504;9.588;2023-05-25T00:04:42;102431.94;;;10.25;100.00
8398;BME280;4236;54.504;9.588;2023-05-25T00:07:13;102441.84;;;10.15;100.00
8398;BME280;4236;54.504;9.588;2023-05-25T00:09:42;102446.47;;;10.13;100.00
8398;BME280;4236;54.504;9.588;2023-05-25T00:12:13;102450.03;;;10.04;100.00
8398;BME280;4236;54.504;9.588;2023-05-25T00:14:41;102444.94;;;10.11;100.00
8398;BME280;4236;54.504;9.588;2023-05-25T00:17:09;102449.88;;;10.06;100.00
8398;BME280;4236;54.504;9.588;2023-05-25T00:19:38;102449.19;;;10.03;100.00
8398;BME280;4236;54.504;9.588;2023-05-25T00:22:07;102456.66;;;10.00;100.00
8398;BME280;4236;54.504;9.588;2023-05-25T00:24:36;102449.47;;;10.00;100.00
8398;BME280;4236;54.504;9.588;2023-05-25T00:27:04;102454.31;;;9.97;100.00
8398;BME280;4236;54.504;9.588;2023-05-25T00:29:34;102459.00;;;9.85;100.00
8398;BME280;4236;54.504;9.588;2023-05-25T00:32:02;102460.53;;;9.88;100.00
8398;BME280;4236;54.504;9.588;2023-05-25T00:34:30;102458.00;;;9.86;100.00
8398;BME280;4236;54.504;9.588;2023-05-25T00:36:59;102459.44;;;9.81;100.00
8398;BME280;4236;54.504;9.588;2023-05-25T00:39:27;102457.47;;;9.83;100.00
8398;BME280;4236;54.504;9.588;2023-05-25T00:41:55;102455.94;;;9.80;100.00
8398;BME280;4236;54.504;9.588;2023-05-25T00:44:23;102462.94;;;9.81;100.00
8398;BME280;4236;54.504;9.588;2023-05-25T00:46:51;102456.66;;;9.82;100.00
8398;BME280;4236;54.504;9.588;2023-05-25T00:49:20;102465.91;;;9.78;100.00
8398;BME280;4236;54.504;9.588;2023-05-25T00:51:51;102465.91;;;9.78;100.00
8398;BME280;4236;54.504;9.588;2023-05-25T00:54:20;102467.91;;;9.76;100.00
8398;BME280;4236;54.504;9.588;2023-05-25T00:56:51;102462.88;;;9.73;100.00
8398;BME280;4236;54.504;9.588;2023-05-25T00:59:25;102466.13;;;9.67;100.00
8398;BME280;4236;54.504;9.588;2023-05-25T01:01:58;102464.06;;;9.61;100.00
8398;BME280;4236;54.504;9.588;2023-05-25T01:04:30;102471.63;;;9.56;100.00
8398;BME280;4236;54.504;9.588;2023-05-25T01:07:00;102469.69;;;9.58;100.00
8398;BME280;4236;54.504;9.588;2023-05-25T01:09:31;102471.63;;;9.56;100.00
8398;BME280;4236;54.504;9.588;2023-05-25T01:12:01;102478.50;;;9.59;100.00
8398;BME280;4236;54.504;9.588;2023-05-25T01:14:30;102475.53;;;9.62;100.00
8398;BME280;4236;54.504;9.588;2023-05-25T01:16:58;102487.31;;;9.59;100.00
8398;BME280;4236;54.504;9.588;2023-05-25T01:19:26;102486.03;;;9.63;100.00
8398;BME280;4236;54.504;9.588;2023-05-25T01:22:00;102488.72;;;9.63;100.00
8398;BME280;4236;54.504;9.588;2023-05-25T01:24:33;102483.84;;;9.59;100.00
8398;BME280;4236;54.504;9.588;2023-05-25T01:27:12;102483.44;;;9.54;100.00
8398;BME280;4236;54.504;9.588;2023-05-25T01:29:43;102486.53;;;9.49;100.00
8398;BME280;4236;54.504;9.588;2023-05-25T01:32:12;102494.94;;;9.54;100.00
8398;BME280;4236;54.504;9.588;2023-05-25T01:34:42;102496.44;;;9.57;100.00
8398;BME280;4236;54.504;9.588;2023-05-25T01:37:11;102497.16;;;9.59;100.00
8398;BME280;4236;54.504;9.588;2023-05-25T01:39:39;102483.84;;;9.59;100.00
8398;BME280;4236;54.504;9.588;2023-05-25T01:42:07;102490.16;;;9.58;100.00
8398;BME280;4236;54.504;9.588;2023-05-25T01:44:36;102489.47;;;9.56;100.00
8398;BME280;4236;54.504;9.588;2023-05-25T01:47:08;102493.00;;;9.47;100.00
8398;BME280;4236;54.504;9.588;2023-05-25T01:49:42;102482.06;;;9.50;100.00
8398;BME280;4236;54.504;9.588;2023-05-25T01:52:19;102484.19;;;9.46;100.00
8398;BME280;4236;54.504;9.588;2023-05-25T01:54:52;102481.09;;;9.41;100.00
8398;BME280;4236;54.504;9.588;2023-05-25T01:57:20;102481.94;;;9.41;100.00
8398;BME280;4236;54.504;9.588;2023-05-25T01:59:49;102481.84;;;9.33;100.00
8398;BME280;4236;54.504;9.588;2023-05-25T02:02:19;102478.88;;;9.36;100.00
8398;BME280;4236;54.504;9.588;2023-05-25T02:04:48;102492.19;;;9.36;100.00
8398;BME280;4236;54.504;9.588;2023-05-25T02:07:17;102498.78;;;9.32;100.00
8398;BME280;4236;54.504;9.588;2023-05-25T02:09:45;102498.78;;;9.32;100.00
8398;BME280;4236;54.504;9.588;2023-05-25T02:12:13;102500.50;;;9.24;100.00
8398;BME280;4236;54.504;9.588;2023-05-25T02:14:41;102497.56;;;9.27;100.00
8398;BME280;4236;54.504;9.588;2023-05-25T02:17:08;102501.19;;;9.26;100.00
8398;BME280;4236;54.504;9.588;2023-05-25T02:19:38;102500.78;;;9.30;100.00
8398;BME280;4236;54.504;9.588;2023-05-25T02:22:05;102496.97;;;9.33;100.00
8398;BME280;4236;54.504;9.588;2023-05-25T02:24:35;102498.78;;;9.32;100.00
8398;BME280;4236;54.504;9.588;2023-05-25T02:27:04;102502.16;;;9.34;100.00
8398;BME280;4236;54.504;9.588;2023-05-25T02:29:31;102499.09;;;9.29;100.00
8398;BME280;4236;54.504;9.588;2023-05-25T02:31:59;102503.44;;;9.30;100.00
8398;BME280;4236;54.504;9.588;2023-05-25T02:34:27;102502.59;;;9.30;100.00
8398;BME280;4236;54.504;9.588;2023-05-25T02:36:55;102502.88;;;9.27;100.00
8398;BME280;4236;54.504;9.588;2023-05-25T02:39:22;102504.84;;;9.25;100.00
8398;BME280;4236;54.504;9.588;2023-05-25T02:41:54;102502.75;;;9.28;100.00
8398;BME280;4236;54.504;9.588;2023-05-25T02:44:22;102500.22;;;9.27;100.00
8398;BME280;4236;54.504;9.588;2023-05-25T02:46:49;102508.38;;;9.25;100.00
8398;BME280;4236;54.504;9.588;2023-05-25T02:49:17;102511.84;;;9.26;100.00
8398;BME280;4236;54.504;9.588;2023-05-25T02:51:45;102507.34;;;9.26;100.00
8398;BME280;4236;54.504;9.588;2023-05-25T02:54:13;102510.56;;;9.30;100.00
8398;BME280;4236;54.504;9.588;2023-05-25T02:56:40;102509.72;;;9.29;100.00
8398;BME280;4236;54.504;9.588;2023-05-25T02:59:10;102511.72;;;9.27;100.00
8398;BME280;4236;54.504;9.588;2023-05-25T03:01:37;102506.09;;;9.30;100.00
8398;BME280;4236;54.504;9.588;2023-05-25T03:04:05;102510.56;;;9.30;100.00
8398;BME280;4236;54.504;9.588;2023-05-25T03:06:33;102513.41;;;9.28;100.00
8398;BME280;4236;54.504;9.588;2023-05-25T03:09:02;102521.38;;;9.28;100.00
8398;BME280;4236;54.504;9.588;2023-05-25T03:11:30;102516.88;;;9.29;100.00
8398;BME280;4236;54.504;9.588;2023-05-25T03:13:58;102515.47;;;9.34;100.00
8398;BME280;4236;54.504;9.588;2023-05-25T03:16:27;102519.50;;;9.38;100.00
8398;BME280;4236;54.504;9.588;2023-05-25T03:18:54;102521.50;;;9.36;100.00
8398;BME280;4236;54.504;9.588;2023-05-25T03:21:22;102524.72;;;9.40;100.00
8398;BME280;4236;54.504;9.588;2023-05-25T03:23:50;102528.06;;;9.42;100.00
8398;BME280;4236;54.504;9.588;2023-05-25T03:26:18;102531.09;;;9.47;100.00
8398;BME280;4236;54.504;9.588;2023-05-25T03:28:45;102522.69;;;9.52;100.00
8398;BME280;4236;54.504;9.588;2023-05-25T03:31:13;102523.81;;;9.59;100.00
8398;BME280;4236;54.504;9.588;2023-05-25T03:33:42;102517.16;;;9.63;100.00
8398;BME280;4236;54.504;9.588;2023-05-25T03:36:10;102526.59;;;9.57;100.00
8398;BME280;4236;54.504;9.588;2023-05-25T03:38:39;102520.28;;;9.58;100.00
8398;BME280;4236;54.504;9.588;2023-05-25T03:41:06;102523.19;;;9.65;100.00
8398;BME280;4236;54.504;9.588;2023-05-25T03:43:34;102511.94;;;9.71;100.00
8398;BME280;4236;54.504;9.588;2023-05-25T03:46:02;102518.91;;;9.81;100.00
8398;BME280;4236;54.504;9.588;2023-05-25T03:48:30;102516.91;;;9.83;100.00
8398;BME280;4236;54.504;9.588;2023-05-25T03:50:59;102526.25;;;9.97;100.00
8398;BME280;4236;54.504;9.588;2023-05-25T03:53:26;102524.66;;;10.04;100.00
8398;BME280;4236;54.504;9.588;2023-05-25T03:55:54;102513.41;;;10.10;100.00
8398;BME280;4236;54.504;9.588;2023-05-25T03:58:22;102511.56;;;10.11;100.00
8398;BME280;4236;54.504;9.588;2023-05-25T04:00:50;102514.41;;;10.09;100.00
8398;BME280;4236;54.504;9.588;2023-05-25T04:03:18;102511.31;;;10.14;100.00
8398;BME280;4236;54.504;9.588;2023-05-25T04:05:46;102514.75;;;10.24;100.00
8398;BME280;4236;54.504;9.588;2023-05-25T04:08:16;102511.25;;;10.23;100.00
8398;BME280;4236;54.504;9.588;2023-05-25T04:10:44;102516.94;;;10.28;100.00
8398;BME280;4236;54.504;9.588;2023-05-25T04:13:12;102513.13;;;10.31;100.00
8398;BME280;4236;54.504;9.588;2023-05-25T04:15:40;102522.88;;;10.40;100.00
8398;BME280;4236;54.504;9.588;2023-05-25T04:18:08;102520.63;;;10.45;100.00
8398;BME280;4236;54.504;9.588;2023-05-25T04:20:36;102528.09;;;10.59;100.00
8398;BME280;4236;54.504;9.588;2023-05-25T04:23:03;102525.31;;;11.12;100.00
8398;BME280;4236;54.504;9.588;2023-05-25T04:25:32;102524.78;;;12.02;100.00
8398;BME280;4236;54.504;9.588;2023-05-25T04:28:00;102513.69;;;12.79;100.00
8398;BME280;4236;54.504;9.588;2023-05-25T04:30:28;102506.72;;;13.41;100.00
8398;BME280;4236;54.504;9.588;2023-05-25T04:32:56;102492.03;;;13.76;100.00
8398;BME280;4236;54.504;9.588;2023-05-25T04:35:28;102489.78;;;14.18;100.00
8398;BME280;4236;54.504;9.588;2023-05-25T04:37:56;102495.44;;;14.54;100.00
8398;BME280;4236;54.504;9.588;2023-05-25T04:40:26;102491.19;;;15.12;100.00
8398;BME280;4236;54.504;9.588;2023-05-25T04:42:55;102491.75;;;15.36;100.00
8398;BME280;4236;54.504;9.588;2023-05-25T04:45:22;102493.91;;;15.41;100.00
8398;BME280;4236;54.504;9.588;2023-05-25T04:47:50;102500.19;;;15.77;100.00
8398;BME280;4236;54.504;9.588;2023-05-25T04:50:18;102493.03;;;15.84;100.00
8398;BME280;4236;54.504;9.588;2023-05-25T04:52:46;102501.56;;;16.24;100.00
8398;BME280;4236;54.504;9.588;2023-05-25T04:55:14;102497.19;;;16.44;100.00
8398;BME280;4236;54.504;9.588;2023-05-25T04:57:42;102495.56;;;16.92;100.00
8398;BME280;4236;54.504;9.588;2023-05-25T05:00:12;102503.44;;;17.21;100.00
8398;BME280;4236;54.504;9.588;2023-05-25T05:02:40;102496.94;;;17.09;100.00
8398;BME280;4236;54.504;9.588;2023-05-25T05:05:09;102492.66;;;17.21;100.00
8398;BME280;4236;54.504;9.588;2023-05-25T05:07:37;102493.41;;;17.43;100.00
8398;BME280;4236;54.504;9.588;2023-05-25T05:10:05;102502.94;;;17.04;100.00
8398;BME280;4236;54.504;9.588;2023-05-25T05:12:33;102500.84;;;16.79;100.00
8398;BME280;4236;54.504;9.588;2023-05-25T05:15:01;102505.06;;;16.60;100.00
8398;BME280;4236;54.504;9.588;2023-05-25T05:17:30;102498.72;;;16.11;100.00
8398;BME280;4236;54.504;9.588;2023-05-25T05:19:58;102497.81;;;16.61;100.00
8398;BME280;4236;54.504;9.588;2023-05-25T05:22:25;102500.22;;;17.04;100.00
8398;BME280;4236;54.504;9.588;2023-05-25T05:24:53;102513.44;;;17.27;100.00
8398;BME280;4236;54.504;9.588;2023-05-25T05:27:21;102508.88;;;17.00;98.56
8398;BME280;4236;54.504;9.588;2023-05-25T05:29:49;102513.25;;;17.29;96.75
8398;BME280;4236;54.504;9.588;2023-05-25T05:32:17;102512.59;;;17.20;98.13
8398;BME280;4236;54.504;9.588;2023-05-25T05:34:46;102506.00;;;17.01;98.91
8398;BME280;4236;54.504;9.588;2023-05-25T05:37:13;102512.66;;;17.33;93.66
8398;BME280;4236;54.504;9.588;2023-05-25T05:39:41;102509.03;;;17.54;93.81
8398;BME280;4236;54.504;9.588;2023-05-25T05:42:09;102516.28;;;17.47;91.51
8398;BME280;4236;54.504;9.588;2023-05-25T05:44:37;102516.31;;;16.70;91.53
8398;BME280;4236;54.504;9.588;2023-05-25T05:47:04;102522.09;;;16.67;97.06
8398;BME280;4236;54.504;9.588;2023-05-25T05:49:33;102505.88;;;16.39;99.15
8398;BME280;4236;54.504;9.588;2023-05-25T05:52:04;102524.38;;;16.49;97.90
8398;BME280;4236;54.504;9.588;2023-05-25T05:54:32;102520.16;;;16.82;90.80
8398;BME280;4236;54.504;9.588;2023-05-25T05:57:00;102526.13;;;16.78;93.72
8398;BME280;4236;54.504;9.588;2023-05-25T05:59:28;102524.53;;;16.83;89.93
8398;BME280;4236;54.504;9.588;2023-05-25T06:01:56;102528.81;;;16.99;96.62
8398;BME280;4236;54.504;9.588;2023-05-25T06:04:24;102519.16;;;16.62;90.84
8398;BME280;4236;54.504;9.588;2023-05-25T06:06:54;102529.03;;;17.04;93.13
8398;BME280;4236;54.504;9.588;2023-05-25T06:09:24;102528.84;;;17.33;86.95
8398;BME280;4236;54.504;9.588;2023-05-25T06:11:52;102531.34;;;17.69;81.20
8398;BME280;4236;54.504;9.588;2023-05-25T06:14:20;102532.47;;;17.88;80.24
8398;BME280;4236;54.504;9.588;2023-05-25T06:16:47;102530.41;;;17.90;81.33
8398;BME280;4236;54.504;9.588;2023-05-25T06:19:16;102526.56;;;18.12;79.41
8398;BME280;4236;54.504;9.588;2023-05-25T06:21:44;102538.09;;;18.53;73.44
8398;BME280;4236;54.504;9.588;2023-05-25T06:24:13;102544.25;;;18.28;71.61
8398;BME280;4236;54.504;9.588;2023-05-25T06:26:42;102546.63;;;19.09;69.09
8398;BME280;4236;54.504;9.588;2023-05-25T06:29:10;102548.16;;;18.12;68.91
8398;BME280;4236;54.504;9.588;2023-05-25T06:31:42;102542.06;;;18.64;67.96
8398;BME280;4236;54.504;9.588;2023-05-25T06:34:09;102554.72;;;18.50;69.27
8398;BME280;4236;54.504;9.588;2023-05-25T06:36:37;102545.41;;;19.05;69.32
8398;BME280;4236;54.504;9.588;2023-05-25T06:39:07;102552.88;;;18.97;66.46
8398;BME280;4236;54.504;9.588;2023-05-25T06:41:36;102546.41;;;19.30;64.73
8398;BME280;4236;54.504;9.588;2023-05-25T06:44:07;102545.00;;;19.02;63.08
8398;BME280;4236;54.504;9.588;2023-05-25T06:46:35;102547.56;;;18.30;63.49
8398;BME280;4236;54.504;9.588;2023-05-25T06:49:04;102551.81;;;17.91;67.44
8398;BME280;4236;54.504;9.588;2023-05-25T06:51:32;102539.19;;;18.05;66.27
8398;BME280;4236;54.504;9.588;2023-05-25T06:53:59;102546.34;;;18.39;67.10
8398;BME280;4236;54.504;9.588;2023-05-25T06:56:27;102532.06;;;18.51;65.75
8398;BME280;4236;54.504;9.588;2023-05-25T06:58:55;102545.00;;;19.02;64.31
8398;BME280;4236;54.504;9.588;2023-05-25T07:01:24;102550.19;;;19.10;61.98
8398;BME280;4236;54.504;9.588;2023-05-25T07:03:52;102543.09;;;18.83;63.52
8398;BME280;4236;54.504;9.588;2023-05-25T07:06:20;102545.19;;;19.13;61.84
8398;BME280;4236;54.504;9.588;2023-05-25T07:08:48;102546.19;;;19.39;62.64
8398;BME280;4236;54.504;9.588;2023-05-25T07:11:16;102552.13;;;19.86;59.63
8398;BME280;4236;54.504;9.588;2023-05-25T07:13:46;102558.69;;;19.46;58.91
8398;BME280;4236;54.504;9.588;2023-05-25T07:16:13;102562.84;;;19.35;58.61
8398;BME280;4236;54.504;9.588;2023-05-25T07:18:43;102555.59;;;19.43;56.77
8398;BME280;4236;54.504;9.588;2023-05-25T07:21:11;102562.25;;;18.81;58.47
8398;BME280;4236;54.504;9.588;2023-05-25T07:23:38;102578.00;;;18.64;58.70
8398;BME280;4236;54.504;9.588;2023-05-25T07:26:06;102573.88;;;18.88;60.98
8398;BME280;4236;54.504;9.588;2023-05-25T07:28:34;102573.88;;;19.21;58.33
8398;BME280;4236;54.504;9.588;2023-05-25T07:31:02;102570.34;;;19.01;58.48
8398;BME280;4236;54.504;9.588;2023-05-25T07:33:30;102580.75;;;18.91;58.94
8398;BME280;4236;54.504;9.588;2023-05-25T07:35:59;102572.03;;;19.02;58.44
8398;BME280;4236;54.504;9.588;2023-05-25T07:38:26;102577.59;;;19.59;57.07
8398;BME280;4236;54.504;9.588;2023-05-25T07:40:54;102583.66;;;19.42;58.17
8398;BME280;4236;54.504;9.588;2023-05-25T07:43:22;102581.34;;;19.39;56.96
8398;BME280;4236;54.504;9.588;2023-05-25T07:45:50;102593.69;;;19.41;55.59
8398;BME280;4236;54.504;9.588;2023-05-25T07:48:18;102578.47;;;19.01;59.42
8398;BME280;4236;54.504;9.588;2023-05-25T07:50:45;102579.47;;;18.73;61.56
8398;BME280;4236;54.504;9.588;2023-05-25T07:53:14;102583.41;;;17.97;60.51
8398;BME280;4236;54.504;9.588;2023-05-25T07:55:42;102591.31;;;18.05;63.59
8398;BME280;4236;54.504;9.588;2023-05-25T07:58:10;102591.53;;;18.10;63.47
8398;BME280;4236;54.504;9.588;2023-05-25T08:00:38;102600.03;;;17.66;63.39
8398;BME280;4236;54.504;9.588;2023-05-25T08:03:05;102594.63;;;17.39;64.35
8398;BME280;4236;54.504;9.588;2023-05-25T08:05:33;102593.84;;;17.17;66.25
8398;BME280;4236;54.504;9.588;2023-05-25T08:08:01;102598.13;;;17.11;67.43
8398;BME280;4236;54.504;9.588;2023-05-25T08:10:30;102601.38;;;17.00;66.76
8398;BME280;4236;54.504;9.588;2023-05-25T08:12:58;102592.72;;;17.05;67.42
8398;BME280;4236;54.504;9.588;2023-05-25T08:15:26;102609.91;;;16.83;69.57
8398;BME280;4236;54.504;9.588;2023-05-25T08:17:53;102603.56;;;16.90;71.22
8398;BME280;4236;54.504;9.588;2023-05-25T08:20:22;102607.59;;;17.01;70.25
8398;BME280;4236;54.504;9.588;2023-05-25T08:22:51;102607.28;;;16.89;70.48
8398;BME280;4236;54.504;9.588;2023-05-25T08:25:20;102618.31;;;16.94;70.53
8398;BME280;4236;54.504;9.588;2023-05-25T08:27:49;102616.66;;;16.93;72.35
8398;BME280;4236;54.504;9.588;2023-05-25T08:30:17;102611.81;;;17.10;67.85
8398;BME280;4236;54.504;9.588;2023-05-25T08:32:44;102620.09;;;17.08;69.37
8398;BME280;4236;54.504;9.588;2023-05-25T08:35:12;102618.00;;;17.04;68.25
8398;BME280;4236;54.504;9.588;2023-05-25T08:37:40;102608.69;;;17.06;71.99
8398;BME280;4236;54.504;9.588;2023-05-25T08:40:13;102613.41;;;17.26;72.72
8398;BME280;4236;54.504;9.588;2023-05-25T08:42:42;102615.09;;;17.05;68.74
8398;BME280;4236;54.504;9.588;2023-05-25T08:45:11;102621.06;;;17.22;71.90
8398;BME280;4236;54.504;9.588;2023-05-25T08:47:58;102621.47;;;16.98;71.63
8398;BME280;4236;54.504;9.588;2023-05-25T08:50:29;102624.28;;;16.90;68.89
8398;BME280;4236;54.504;9.588;2023-05-25T08:52:58;102611.84;;;16.89;70.97
8398;BME280;4236;54.504;9.588;2023-05-25T08:55:32;102622.81;;;16.66;71.68
8398;BME280;4236;54.504;9.588;2023-05-25T08:58:09;102636.31;;;16.73;68.64
8398;BME280;4236;54.504;9.588;2023-05-25T09:00:46;102645.72;;;16.98;68.40
8398;BME280;4236;54.504;9.588;2023-05-25T09:03:16;102639.22;;;16.71;68.44
8398;BME280;4236;54.504;9.588;2023-05-25T09:05:45;102641.16;;;16.98;70.93
8398;BME280;4236;54.504;9.588;2023-05-25T09:08:13;102641.84;;;17.28;72.34
8398;BME280;4236;54.504;9.588;2023-05-25T09:10:42;102635.06;;;17.11;72.78
8398;BME280;4236;54.504;9.588;2023-05-25T09:13:09;102637.22;;;16.58;73.74
8398;BME280;4236;54.504;9.588;2023-05-25T09:15:40;102635.63;;;16.64;71.92
8398;BME280;4236;54.504;9.588;2023-05-25T09:18:09;102639.38;;;16.84;77.10
8398;BME280;4236;54.504;9.588;2023-05-25T09:20:38;102640.09;;;17.21;71.80
8398;BME280;4236;54.504;9.588;2023-05-25T09:23:12;102644.00;;;16.90;75.81
8398;BME280;4236;54.504;9.588;2023-05-25T09:25:41;102637.31;;;17.07;73.02
8398;BME280;4236;54.504;9.588;2023-05-25T09:28:10;102632.50;;;17.52;73.65
8398;BME280;4236;54.504;9.588;2023-05-25T09:30:53;102638.72;;;17.52;69.81
8398;BME280;4236;54.504;9.588;2023-05-25T09:33:22;102637.66;;;17.75;67.98
8398;BME280;4236;54.504;9.588;2023-05-25T09:35:50;102632.63;;;17.65;66.47
8398;BME280;4236;54.504;9.588;2023-05-25T09:38:18;102637.13;;;17.58;68.60
8398;BME280;4236;54.504;9.588;2023-05-25T09:40:46;102645.91;;;17.66;65.02
8398;BME280;4236;54.504;9.588;2023-05-25T09:43:15;102633.19;;;17.60;64.40
8398;BME280;4236;54.504;9.588;2023-05-25T09:45:58;102638.44;;;17.68;66.38
8398;BME280;4236;54.504;9.588;2023-05-25T09:48:27;102636.78;;;17.67;61.32
8398;BME280;4236;54.504;9.588;2023-05-25T09:50:55;102647.19;;;17.71;63.08
8398;BME280;4236;54.504;9.588;2023-05-25T09:53:25;102644.50;;;17.71;58.77
8398;BME280;4236;54.504;9.588;2023-05-25T09:55:53;102649.59;;;17.59;61.87
8398;BME280;4236;54.504;9.588;2023-05-25T09:58:21;102640.38;;;17.53;59.22
8398;BME280;4236;54.504;9.588;2023-05-25T10:00:51;102642.25;;;17.81;58.17
8398;BME280;4236;54.504;9.588;2023-05-25T10:03:19;102638.13;;;17.85;60.40
8398;BME280;4236;54.504;9.588;2023-05-25T10:05:50;102644.03;;;17.95;57.51
8398;BME280;4236;54.504;9.588;2023-05-25T10:08:19;102650.50;;;18.00;62.13
8398;BME280;4236;54.504;9.588;2023-05-25T10:10:48;102644.38;;;18.26;63.64
8398;BME280;4236;54.504;9.588;2023-05-25T10:13:19;102635.00;;;18.15;62.96
8398;BME280;4236;54.504;9.588;2023-05-25T10:15:52;102653.53;;;18.32;65.66
8398;BME280;4236;54.504;9.588;2023-05-25T10:18:23;102650.09;;;18.10;62.74
8398;BME280;4236;54.504;9.588;2023-05-25T10:20:58;102646.66;;;18.29;62.81
8398;BME280;4236;54.504;9.588;2023-05-25T10:23:32;102637.09;;;18.81;59.01
8398;BME280;4236;54.504;9.588;2023-05-25T10:26:02;102647.34;;;18.44;60.78
8398;BME280;4236;54.504;9.588;2023-05-25T10:28:35;102640.38;;;18.63;57.97
8398;BME280;4236;54.504;9.588;2023-05-25T10:31:04;102646.88;;;18.34;55.58
8398;BME280;4236;54.504;9.588;2023-05-25T10:33:32;102651.81;;;18.17;57.22
8398;BME280;4236;54.504;9.588;2023-05-25T10:36:02;102652.94;;;17.95;57.61
8398;BME280;4236;54.504;9.588;2023-05-25T10:38:38;102638.72;;;18.14;57.33
8398;BME280;4236;54.504;9.588;2023-05-25T10:41:08;102641.56;;;18.00;59.69
8398;BME280;4236;54.504;9.588;2023-05-25T10:43:37;102642.25;;;18.15;58.60
8398;BME280;4236;54.504;9.588;2023-05-25T10:46:05;102648.78;;;18.34;57.63
8398;BME280;4236;54.504;9.588;2023-05-25T10:48:36;102646.72;;;18.42;57.39
8398;BME280;4236;54.504;9.588;2023-05-25T10:51:06;102641.63;;;18.60;57.32
8398;BME280;4236;54.504;9.588;2023-05-25T10:53:37;102646.22;;;18.66;58.57
8398;BME280;4236;54.504;9.588;2023-05-25T10:56:06;102648.94;;;18.79;59.36
8398;BME280;4236;54.504;9.588;2023-05-25T10:58:40;102633.59;;;19.19;53.52
8398;BME280;4236;54.504;9.588;2023-05-25T11:01:11;102636.94;;;19.02;55.89
8398;BME280;4236;54.504;9.588;2023-05-25T11:03:55;102639.44;;;19.16;55.26
8398;BME280;4236;54.504;9.588;2023-05-25T11:07:03;102642.75;;;19.12;55.43
8398;BME280;4236;54.504;9.588;2023-05-25T11:09:39;102638.56;;;19.03;54.14
8398;BME280;4236;54.504;9.588;2023-05-25T11:12:18;102638.59;;;18.96;53.56
8398;BME280;4236;54.504;9.588;2023-05-25T11:15:12;102636.72;;;18.90;54.21
8398;BME280;4236;54.504;9.588;2023-05-25T11:17:56;102639.00;;;18.93;55.14
8398;BME280;4236;54.504;9.588;2023-05-25T11:20:26;102633.78;;;18.98;54.67
8398;BME280;4236;54.504;9.588;2023-05-25T11:23:22;102627.38;;;19.19;53.65
8398;BME280;4236;54.504;9.588;2023-05-25T11:25:50;102626.13;;;19.48;52.19
8398;BME280;4236;54.504;9.588;2023-05-25T11:28:21;102629.84;;;19.66;53.21
8398;BME280;4236;54.504;9.588;2023-05-25T11:30:49;102619.53;;;20.01;52.00
8398;BME280;4236;54.504;9.588;2023-05-25T11:33:19;102618.25;;;20.17;49.28
8398;BME280;4236;54.504;9.588;2023-05-25T11:35:47;102620.63;;;19.87;48.46
8398;BME280;4236;54.504;9.588;2023-05-25T11:38:16;102616.84;;;20.01;47.96
8398;BME280;4236;54.504;9.588;2023-05-25T11:40:44;102621.47;;;19.81;48.38
8398;BME280;4236;54.504;9.588;2023-05-25T11:43:14;102619.25;;;19.58;46.78
8398;BME280;4236;54.504;9.588;2023-05-25T11:45:42;102624.84;;;19.83;48.87
8398;BME280;4236;54.504;9.588;2023-05-25T11:48:12;102620.06;;;19.72;51.83
8398;BME280;4236;54.504;9.588;2023-05-25T11:50:40;102623.94;;;19.96;51.57
8398;BME280;4236;54.504;9.588;2023-05-25T11:53:07;102611.19;;;20.60;51.44
8398;BME280;4236;54.504;9.588;2023-05-25T11:55:37;102613.38;;;20.38;50.50
8398;BME280;4236;54.504;9.588;2023-05-25T11:58:06;102602.88;;;20.55;48.94
8398;BME280;4236;54.504;9.588;2023-05-25T12:00:34;102599.19;;;20.43;47.81
8398;BME280;4236;54.504;9.588;2023-05-25T12:03:01;102602.78;;;20.68;47.72
8398;BME280;4236;54.504;9.588;2023-05-25T12:05:37;102601.56;;;20.64;51.75
8398;BME280;4236;54.504;9.588;2023-05-25T12:08:04;102602.72;;;21.06;49.96
8398;BME280;4236;54.504;9.588;2023-05-25T12:10:32;102602.84;;;20.93;46.27
8398;BME280;4236;54.504;9.588;2023-05-25T12:13:01;102603.03;;;20.91;47.01
8398;BME280;4236;54.504;9.588;2023-05-25T12:15:29;102605.66;;;20.73;46.48
8398;BME280;4236;54.504;9.588;2023-05-25T12:17:57;102600.53;;;20.65;50.06
8398;BME280;4236;54.504;9.588;2023-05-25T12:20:25;102593.50;;;20.82;49.17
8398;BME280;4236;54.504;9.588;2023-05-25T12:22:53;102590.50;;;21.46;50.30
8398;BME280;4236;54.504;9.588;2023-05-25T12:25:21;102593.56;;;21.93;48.22
8398;BME280;4236;54.504;9.588;2023-05-25T12:28:11;102592.69;;;21.38;43.52
8398;BME280;4236;54.504;9.588;2023-05-25T12:30:40;102590.81;;;21.75;44.40
8398;BME280;4236;54.504;9.588;2023-05-25T12:33:12;102592.06;;;21.54;45.87
8398;BME280;4236;54.504;9.588;2023-05-25T12:35:45;102587.22;;;21.20;45.86
8398;BME280;4236;54.504;9.588;2023-05-25T12:38:15;102581.78;;;21.20;43.26
8398;BME280;4236;54.504;9.588;2023-05-25T12:40:43;102592.31;;;21.52;45.02
8398;BME280;4236;54.504;9.588;2023-05-25T12:43:13;102587.59;;;21.41;44.72
8398;BME280;4236;54.504;9.588;2023-05-25T12:45:43;102584.78;;;21.30;46.89
8398;BME280;4236;54.504;9.588;2023-05-25T12:48:10;102598.25;;;20.93;46.69
8398;BME280;4236;54.504;9.588;2023-05-25T12:50:55;102597.50;;;20.49;45.46
8398;BME280;4236;54.504;9.588;2023-05-25T12:53:23;102590.72;;;20.26;46.51
8398;BME280;4236;54.504;9.588;2023-05-25T12:55:59;102588.34;;;20.43;45.46
8398;BME280;4236;54.504;9.588;2023-05-25T12:58:29;102584.28;;;20.59;44.78
8398;BME280;4236;54.504;9.588;2023-05-25T13:00:57;102585.28;;;20.64;44.53
8398;BME280;4236;54.504;9.588;2023-05-25T13:03:25;102586.66;;;20.80;43.88
8398;BME280;4236;54.504;9.588;2023-05-25T13:05:58;102589.97;;;21.13;43.22
8398;BME280;4236;54.504;9.588;2023-05-25T13:08:28;102582.16;;;21.23;44.15
8398;BME280;4236;54.504;9.588;2023-05-25T13:10:55;102589.81;;;21.08;46.45
8398;BME280;4236;54.504;9.588;2023-05-25T13:13:23;102595.06;;;20.72;46.17
8398;BME280;4236;54.504;9.588;2023-05-25T13:15:52;102581.72;;;20.39;46.26
8398;BME280;4236;54.504;9.588;2023-05-25T13:18:20;102589.41;;;20.73;47.23
8398;BME280;4236;54.504;9.588;2023-05-25T13:20:48;102590.75;;;21.20;47.01
8398;BME280;4236;54.504;9.588;2023-05-25T13:23:19;102577.88;;;21.34;46.83